sensor_id;sensor_type;location;lat;lon;timestamp;P1;durP1;ratioP1;P2;durP2;ratioP2
2972;SDS011;1496;51.404;7.232;2023-09-19T00:00:20;14.63;;;1.97;;
2972;SDS011;1496;51.404;7.232;2023-09-19T00:02:55;13.40;;;2.23;;
2972;SDS011;1496;51.404;7.232;2023-09-19T00:05:22;11.43;;;2.57;;
2972;SDS011;1496;51.404;7.232;2023-09-19T00:07:52;11.67;;;2.13;;
2972;SDS011;1496;51.404;7.232;2023-09-19T00:10:22;19.20;;;4.43;;
2972;SDS011;1496;51.404;7.232;2023-09-19T00:12:52;13.53;;;2.57;;
2972;SDS011;1496;51.404;7.232;2023-09-19T00:15:22;9.23;;;1.80;;
2972;SDS011;1496;51.404;7.232;2023-09-19T00:17:48;12.00;;;2.50;;
2972;SDS011;1496;51.404;7.232;2023-09-19T00:20:14;12.30;;;2.00;;
2972;SDS011;1496;51.404;7.232;2023-09-19T00:22:43;12.07;;;1.97;;
2972;SDS011;1496;51.404;7.232;2023-09-19T00:25:10;16.40;;;2.57;;
2972;SDS011;1496;51.404;7.232;2023-09-19T00:27:39;11.17;;;2.17;;
2972;SDS011;1496;51.404;7.232;2023-09-19T00:30:06;12.60;;;2.50;;
2972;SDS011;1496;51.404;7.232;2023-09-19T00:32:34;14.90;;;2.20;;
2972;SDS011;1496;51.404;7.232;2023-09-19T00:35:00;18.10;;;3.20;;
2972;SDS011;1496;51.404;7.232;2023-09-19T00:37:26;11.80;;;2.40;;
2972;SDS011;1496;51.404;7.232;2023-09-19T00:39:51;14.63;;;2.70;;
2972;SDS011;1496;51.404;7.232;2023-09-19T00:42:18;21.83;;;2.10;;
2972;SDS011;1496;51.404;7.232;2023-09-19T00:44:46;14.20;;;1.97;;
2972;SDS011;1496;51.404;7.232;2023-09-19T00:47:15;13.93;;;2.27;;
2972;SDS011;1496;51.404;7.232;2023-09-19T00:49:46;14.40;;;2.27;;
2972;SDS011;1496;51.404;7.232;2023-09-19T00:52:14;16.83;;;2.73;;
2972;SDS011;1496;51.404;7.232;2023-09-19T00:54:41;14.03;;;1.93;;
2972;SDS011;1496;51.404;7.232;2023-09-19T00:57:06;13.77;;;2.10;;
2972;SDS011;1496;51.404;7.232;2023-09-19T00:59:33;16.00;;;2.00;;
2972;SDS011;1496;51.404;7.232;2023-09-19T01:02:01;14.77;;;2.60;;
2972;SDS011;1496;51.404;7.232;2023-09-19T01:04:31;14.57;;;3.00;;
2972;SDS011;1496;51.404;7.232;2023-09-19T01:06:57;15.07;;;2.10;;
2972;SDS011;1496;51.404;7.232;2023-09-19T01:09:23;14.30;;;2.00;;
2972;SDS011;1496;51.404;7.232;2023-09-19T01:11:49;12.77;;;1.57;;
2972;SDS011;1496;51.404;7.232;2023-09-19T01:20:03;16.83;;;2.27;;
2972;SDS011;1496;51.404;7.232;2023-09-19T01:23:10;15.23;;;1.83;;
2972;SDS011;1496;51.404;7.232;2023-09-19T01:29:01;22.83;;;1.90;;
2972;SDS011;1496;51.404;7.232;2023-09-19T01:31:54;18.93;;;2.40;;
2972;SDS011;1496;51.404;7.232;2023-09-19T01:34:26;18.80;;;2.37;;
2972;SDS011;1496;51.404;7.232;2023-09-19T01:36:52;18.47;;;2.27;;
2972;SDS011;1496;51.404;7.232;2023-09-19T01:39:17;19.43;;;2.00;;
2972;SDS011;1496;51.404;7.232;2023-09-19T01:41:54;16.90;;;2.10;;
2972;SDS011;1496;51.404;7.232;2023-09-19T01:45:26;22.83;;;3.40;;
2972;SDS011;1496;51.404;7.232;2023-09-19T01:47:33;17.30;;;2.10;;
2972;SDS011;1496;51.404;7.232;2023-09-19T01:52:47;23.27;;;3.50;;
2972;SDS011;1496;51.404;7.232;2023-09-19T01:55:17;17.93;;;1.80;;
2972;SDS011;1496;51.404;7.232;2023-09-19T02:00:40;17.63;;;2.30;;
2972;SDS011;1496;51.404;7.232;2023-09-19T02:03:08;16.17;;;1.90;;
2972;SDS011;1496;51.404;7.232;2023-09-19T02:05:35;15.80;;;1.70;;
2972;SDS011;1496;51.404;7.232;2023-09-19T02:08:00;21.60;;;2.10;;
2972;SDS011;1496;51.404;7.232;2023-09-19T02:10:26;18.33;;;2.00;;
2972;SDS011;1496;51.404;7.232;2023-09-19T02:12:52;17.87;;;2.30;;
2972;SDS011;1496;51.404;7.232;2023-09-19T02:15:18;18.63;;;2.80;;
2972;SDS011;1496;51.404;7.232;2023-09-19T02:17:43;21.93;;;2.13;;
2972;SDS011;1496;51.404;7.232;2023-09-19T02:20:11;23.43;;;3.17;;
2972;SDS011;1496;51.404;7.232;2023-09-19T02:22:40;20.67;;;2.00;;
2972;SDS011;1496;51.404;7.232;2023-09-19T02:25:07;21.00;;;2.30;;
2972;SDS011;1496;51.404;7.232;2023-09-19T02:27:34;18.80;;;2.10;;
2972;SDS011;1496;51.404;7.232;2023-09-19T02:30:01;25.93;;;2.63;;
2972;SDS011;1496;51.404;7.232;2023-09-19T02:32:29;19.40;;;1.90;;
2972;SDS011;1496;51.404;7.232;2023-09-19T02:34:56;25.33;;;2.40;;
2972;SDS011;1496;51.404;7.232;2023-09-19T02:37:27;19.97;;;2.20;;
2972;SDS011;1496;51.404;7.232;2023-09-19T02:39:53;22.87;;;2.90;;
2972;SDS011;1496;51.404;7.232;2023-09-19T02:42:19;21.67;;;2.10;;
2972;SDS011;1496;51.404;7.232;2023-09-19T02:44:44;22.07;;;2.20;;
2972;SDS011;1496;51.404;7.232;2023-09-19T02:47:12;20.90;;;2.50;;
2972;SDS011;1496;51.404;7.232;2023-09-19T02:49:38;20.27;;;2.03;;
2972;SDS011;1496;51.404;7.232;2023-09-19T02:52:03;22.77;;;2.30;;
2972;SDS011;1496;51.404;7.232;2023-09-19T02:54:32;22.37;;;2.27;;
2972;SDS011;1496;51.404;7.232;2023-09-19T02:56:58;26.40;;;2.13;;
2972;SDS011;1496;51.404;7.232;2023-09-19T02:59:24;23.13;;;2.60;;
2972;SDS011;1496;51.404;7.232;2023-09-19T03:01:50;20.23;;;2.27;;
2972;SDS011;1496;51.404;7.232;2023-09-19T03:04:16;22.10;;;2.83;;
2972;SDS011;1496;51.404;7.232;2023-09-19T03:06:45;26.63;;;2.60;;
2972;SDS011;1496;51.404;7.232;2023-09-19T03:09:11;28.30;;;3.27;;
2972;SDS011;1496;51.404;7.232;2023-09-19T03:11:38;20.13;;;1.80;;
2972;SDS011;1496;51.404;7.232;2023-09-19T03:14:05;23.17;;;2.97;;
2972;SDS011;1496;51.404;7.232;2023-09-19T03:16:31;20.50;;;1.77;;
2972;SDS011;1496;51.404;7.232;2023-09-19T03:18:59;21.27;;;2.30;;
2972;SDS011;1496;51.404;7.232;2023-09-19T03:21:26;20.97;;;1.90;;
2972;SDS011;1496;51.404;7.232;2023-09-19T03:23:54;24.97;;;2.23;;
2972;SDS011;1496;51.404;7.232;2023-09-19T03:26:20;18.47;;;2.43;;
2972;SDS011;1496;51.404;7.232;2023-09-19T03:28:46;27.90;;;2.27;;
2972;SDS011;1496;51.404;7.232;2023-09-19T03:31:12;22.20;;;1.93;;
2972;SDS011;1496;51.404;7.232;2023-09-19T03:33:38;19.37;;;1.47;;
2972;SDS011;1496;51.404;7.232;2023-09-19T03:36:04;20.70;;;2.20;;
2972;SDS011;1496;51.404;7.232;2023-09-19T03:38:30;20.90;;;1.90;;
2972;SDS011;1496;51.404;7.232;2023-09-19T03:40:57;16.20;;;1.90;;
2972;SDS011;1496;51.404;7.232;2023-09-19T03:43:24;17.73;;;1.83;;
2972;SDS011;1496;51.404;7.232;2023-09-19T03:45:50;14.20;;;2.10;;
2972;SDS011;1496;51.404;7.232;2023-09-19T03:48:17;19.10;;;2.60;;
2972;SDS011;1496;51.404;7.232;2023-09-19T03:50:45;14.93;;;2.27;;
2972;SDS011;1496;51.404;7.232;2023-09-19T03:53:10;12.97;;;1.90;;
2972;SDS011;1496;51.404;7.232;2023-09-19T03:55:36;14.90;;;2.53;;
2972;SDS011;1496;51.404;7.232;2023-09-19T03:58:04;14.27;;;1.70;;
2972;SDS011;1496;51.404;7.232;2023-09-19T04:00:30;19.63;;;3.27;;
2972;SDS011;1496;51.404;7.232;2023-09-19T04:02:57;14.10;;;2.20;;
2972;SDS011;1496;51.404;7.232;2023-09-19T04:05:24;11.97;;;3.03;;
2972;SDS011;1496;51.404;7.232;2023-09-19T04:07:49;11.60;;;2.53;;
2972;SDS011;1496;51.404;7.232;2023-09-19T04:10:15;7.67;;;1.70;;
2972;SDS011;1496;51.404;7.232;2023-09-19T04:12:50;14.40;;;2.20;;
2972;SDS011;1496;51.404;7.232;2023-09-19T04:15:19;8.03;;;1.83;;
2972;SDS011;1496;51.404;7.232;2023-09-19T04:17:47;10.40;;;2.03;;
2972;SDS011;1496;51.404;7.232;2023-09-19T04:20:14;16.53;;;2.43;;
2972;SDS011;1496;51.404;7.232;2023-09-19T04:22:40;11.50;;;2.27;;
2972;SDS011;1496;51.404;7.232;2023-09-19T04:25:05;12.37;;;1.80;;
2972;SDS011;1496;51.404;7.232;2023-09-19T04:27:32;10.13;;;1.63;;
2972;SDS011;1496;51.404;7.232;2023-09-19T04:29:58;18.23;;;2.37;;
2972;SDS011;1496;51.404;7.232;2023-09-19T04:32:24;16.87;;;2.70;;
2972;SDS011;1496;51.404;7.232;2023-09-19T04:34:53;18.43;;;1.97;;
2972;SDS011;1496;51.404;7.232;2023-09-19T04:37:20;16.93;;;1.57;;
2972;SDS011;1496;51.404;7.232;2023-09-19T04:39:46;13.77;;;2.37;;
2972;SDS011;1496;51.404;7.232;2023-09-19T04:42:13;15.40;;;1.60;;
2972;SDS011;1496;51.404;7.232;2023-09-19T04:44:39;15.23;;;2.00;;
2972;SDS011;1496;51.404;7.232;2023-09-19T04:47:05;14.60;;;2.00;;
2972;SDS011;1496;51.404;7.232;2023-09-19T04:49:31;13.43;;;2.03;;
2972;SDS011;1496;51.404;7.232;2023-09-19T04:51:57;20.40;;;3.00;;
2972;SDS011;1496;51.404;7.232;2023-09-19T04:54:22;13.70;;;2.10;;
2972;SDS011;1496;51.404;7.232;2023-09-19T04:56:48;13.63;;;1.87;;
2972;SDS011;1496;51.404;7.232;2023-09-19T04:59:13;15.03;;;2.40;;
2972;SDS011;1496;51.404;7.232;2023-09-19T05:01:40;16.30;;;2.60;;
2972;SDS011;1496;51.404;7.232;2023-09-19T05:04:06;16.70;;;2.03;;
2972;SDS011;1496;51.404;7.232;2023-09-19T05:06:32;15.40;;;2.10;;
2972;SDS011;1496;51.404;7.232;2023-09-19T05:08:58;20.17;;;2.63;;
2972;SDS011;1496;51.404;7.232;2023-09-19T05:11:25;18.13;;;2.63;;
2972;SDS011;1496;51.404;7.232;2023-09-19T05:13:51;19.53;;;2.57;;
2972;SDS011;1496;51.404;7.232;2023-09-19T05:16:21;17.80;;;2.20;;
2972;SDS011;1496;51.404;7.232;2023-09-19T05:18:47;16.00;;;2.40;;
2972;SDS011;1496;51.404;7.232;2023-09-19T05:21:13;16.80;;;2.80;;
2972;SDS011;1496;51.404;7.232;2023-09-19T05:23:38;19.30;;;2.37;;
2972;SDS011;1496;51.404;7.232;2023-09-19T05:26:04;15.23;;;2.00;;
2972;SDS011;1496;51.404;7.232;2023-09-19T05:28:30;16.53;;;2.23;;
2972;SDS011;1496;51.404;7.232;2023-09-19T05:30:59;14.90;;;2.40;;
2972;SDS011;1496;51.404;7.232;2023-09-19T05:33:26;21.30;;;2.47;;
2972;SDS011;1496;51.404;7.232;2023-09-19T05:35:52;16.97;;;2.60;;
2972;SDS011;1496;51.404;7.232;2023-09-19T05:38:19;16.60;;;2.50;;
2972;SDS011;1496;51.404;7.232;2023-09-19T05:40:46;15.90;;;1.63;;
2972;SDS011;1496;51.404;7.232;2023-09-19T05:43:11;15.40;;;2.23;;
2972;SDS011;1496;51.404;7.232;2023-09-19T05:45:39;17.20;;;2.63;;
2972;SDS011;1496;51.404;7.232;2023-09-19T05:48:09;19.37;;;2.40;;
2972;SDS011;1496;51.404;7.232;2023-09-19T05:50:40;16.67;;;2.03;;
2972;SDS011;1496;51.404;7.232;2023-09-19T05:53:06;17.37;;;2.13;;
2972;SDS011;1496;51.404;7.232;2023-09-19T05:55:32;22.37;;;2.77;;
2972;SDS011;1496;51.404;7.232;2023-09-19T05:57:58;17.37;;;2.67;;
2972;SDS011;1496;51.404;7.232;2023-09-19T06:00:24;15.70;;;2.30;;
2972;SDS011;1496;51.404;7.232;2023-09-19T06:02:55;22.23;;;2.50;;
2972;SDS011;1496;51.404;7.232;2023-09-19T06:05:22;13.67;;;2.50;;
2972;SDS011;1496;51.404;7.232;2023-09-19T06:07:49;14.83;;;1.97;;
2972;SDS011;1496;51.404;7.232;2023-09-19T06:10:17;18.53;;;2.20;;
2972;SDS011;1496;51.404;7.232;2023-09-19T06:12:43;17.90;;;1.90;;
2972;SDS011;1496;51.404;7.232;2023-09-19T06:15:09;19.10;;;2.30;;
2972;SDS011;1496;51.404;7.232;2023-09-19T06:17:41;15.83;;;2.00;;
2972;SDS011;1496;51.404;7.232;2023-09-19T06:20:07;18.53;;;2.17;;
2972;SDS011;1496;51.404;7.232;2023-09-19T06:22:40;16.70;;;1.83;;
2972;SDS011;1496;51.404;7.232;2023-09-19T06:25:07;20.30;;;2.53;;
2972;SDS011;1496;51.404;7.232;2023-09-19T06:27:36;17.93;;;2.50;;
2972;SDS011;1496;51.404;7.232;2023-09-19T06:30:09;13.60;;;2.20;;
2972;SDS011;1496;51.404;7.232;2023-09-19T06:32:42;16.57;;;2.43;;
2972;SDS011;1496;51.404;7.232;2023-09-19T06:35:11;15.73;;;2.43;;
2972;SDS011;1496;51.404;7.232;2023-09-19T06:37:38;21.00;;;3.20;;
2972;SDS011;1496;51.404;7.232;2023-09-19T06:40:08;16.60;;;3.00;;
2972;SDS011;1496;51.404;7.232;2023-09-19T06:42:40;11.43;;;2.13;;
2972;SDS011;1496;51.404;7.232;2023-09-19T06:45:10;16.30;;;2.20;;
2972;SDS011;1496;51.404;7.232;2023-09-19T06:47:46;13.53;;;2.07;;
2972;SDS011;1496;51.404;7.232;2023-09-19T06:50:22;11.10;;;1.80;;
2972;SDS011;1496;51.404;7.232;2023-09-19T06:52:52;16.43;;;2.13;;
2972;SDS011;1496;51.404;7.232;2023-09-19T06:55:20;13.80;;;2.40;;
2972;SDS011;1496;51.404;7.232;2023-09-19T06:57:50;17.30;;;3.00;;
2972;SDS011;1496;51.404;7.232;2023-09-19T07:00:16;17.10;;;3.33;;
2972;SDS011;1496;51.404;7.232;2023-09-19T07:03:02;13.50;;;2.33;;
2972;SDS011;1496;51.404;7.232;2023-09-19T07:05:35;18.47;;;2.37;;
2972;SDS011;1496;51.404;7.232;2023-09-19T07:08:02;18.57;;;3.47;;
2972;SDS011;1496;51.404;7.232;2023-09-19T07:10:29;16.70;;;3.03;;
2972;SDS011;1496;51.404;7.232;2023-09-19T07:15:28;18.67;;;2.70;;
2972;SDS011;1496;51.404;7.232;2023-09-19T07:17:55;9.57;;;2.40;;
2972;SDS011;1496;51.404;7.232;2023-09-19T07:20:21;17.40;;;2.57;;
2972;SDS011;1496;51.404;7.232;2023-09-19T07:22:51;15.53;;;2.03;;
2972;SDS011;1496;51.404;7.232;2023-09-19T07:25:19;13.30;;;2.87;;
2972;SDS011;1496;51.404;7.232;2023-09-19T07:27:46;14.53;;;2.70;;
2972;SDS011;1496;51.404;7.232;2023-09-19T07:30:12;13.77;;;2.43;;
2972;SDS011;1496;51.404;7.232;2023-09-19T07:32:38;9.23;;;2.00;;
2972;SDS011;1496;51.404;7.232;2023-09-19T07:35:06;10.90;;;2.30;;
2972;SDS011;1496;51.404;7.232;2023-09-19T07:37:32;13.97;;;2.00;;
2972;SDS011;1496;51.404;7.232;2023-09-19T07:40:01;15.83;;;2.27;;
2972;SDS011;1496;51.404;7.232;2023-09-19T07:42:34;9.70;;;1.80;;
2972;SDS011;1496;51.404;7.232;2023-09-19T07:45:02;13.10;;;2.63;;
2972;SDS011;1496;51.404;7.232;2023-09-19T07:47:28;12.30;;;3.23;;
2972;SDS011;1496;51.404;7.232;2023-09-19T07:49:55;10.43;;;2.63;;
2972;SDS011;1496;51.404;7.232;2023-09-19T07:52:21;9.13;;;1.83;;
2972;SDS011;1496;51.404;7.232;2023-09-19T07:54:48;7.73;;;1.83;;
2972;SDS011;1496;51.404;7.232;2023-09-19T07:57:14;11.40;;;2.67;;
2972;SDS011;1496;51.404;7.232;2023-09-19T07:59:41;10.63;;;2.20;;
2972;SDS011;1496;51.404;7.232;2023-09-19T08:02:07;7.73;;;2.37;;
2972;SDS011;1496;51.404;7.232;2023-09-19T08:04:37;15.40;;;2.60;;
2972;SDS011;1496;51.404;7.232;2023-09-19T08:07:04;13.10;;;2.40;;
2972;SDS011;1496;51.404;7.232;2023-09-19T08:09:30;8.50;;;2.17;;
2972;SDS011;1496;51.404;7.232;2023-09-19T08:11:58;15.67;;;2.57;;
2972;SDS011;1496;51.404;7.232;2023-09-19T08:14:27;10.57;;;1.90;;
2972;SDS011;1496;51.404;7.232;2023-09-19T08:16:57;9.57;;;2.47;;
2972;SDS011;1496;51.404;7.232;2023-09-19T08:19:24;8.93;;;2.13;;
2972;SDS011;1496;51.404;7.232;2023-09-19T08:21:54;8.10;;;2.27;;
2972;SDS011;1496;51.404;7.232;2023-09-19T08:24:27;12.23;;;2.03;;
2972;SDS011;1496;51.404;7.232;2023-09-19T08:26:56;11.13;;;2.50;;
2972;SDS011;1496;51.404;7.232;2023-09-19T08:29:23;10.93;;;2.07;;
2972;SDS011;1496;51.404;7.232;2023-09-19T08:31:53;11.67;;;2.77;;
2972;SDS011;1496;51.404;7.232;2023-09-19T08:34:19;5.70;;;2.03;;
2972;SDS011;1496;51.404;7.232;2023-09-19T08:36:46;10.10;;;3.10;;
2972;SDS011;1496;51.404;7.232;2023-09-19T08:39:13;6.77;;;2.43;;
2972;SDS011;1496;51.404;7.232;2023-09-19T08:41:39;8.83;;;3.27;;
2972;SDS011;1496;51.404;7.232;2023-09-19T08:44:05;8.00;;;1.90;;
2972;SDS011;1496;51.404;7.232;2023-09-19T08:46:30;12.77;;;3.13;;
2972;SDS011;1496;51.404;7.232;2023-09-19T08:49:04;6.43;;;2.13;;
2972;SDS011;1496;51.404;7.232;2023-09-19T08:54:09;8.93;;;2.20;;
2972;SDS011;1496;51.404;7.232;2023-09-19T08:56:47;12.03;;;2.20;;
2972;SDS011;1496;51.404;7.232;2023-09-19T08:59:15;8.20;;;2.00;;
2972;SDS011;1496;51.404;7.232;2023-09-19T09:01:43;14.57;;;2.30;;
2972;SDS011;1496;51.404;7.232;2023-09-19T09:04:11;7.00;;;2.13;;
2972;SDS011;1496;51.404;7.232;2023-09-19T09:06:38;11.03;;;2.77;;
2972;SDS011;1496;51.404;7.232;2023-09-19T09:09:08;6.97;;;2.30;;
2972;SDS011;1496;51.404;7.232;2023-09-19T09:11:34;9.00;;;2.30;;
2972;SDS011;1496;51.404;7.232;2023-09-19T09:14:05;6.50;;;2.07;;
2972;SDS011;1496;51.404;7.232;2023-09-19T09:16:34;7.17;;;1.77;;
2972;SDS011;1496;51.404;7.232;2023-09-19T09:19:00;7.67;;;2.57;;
2972;SDS011;1496;51.404;7.232;2023-09-19T09:21:26;6.83;;;2.47;;
2972;SDS011;1496;51.404;7.232;2023-09-19T09:23:53;8.23;;;1.97;;
2972;SDS011;1496;51.404;7.232;2023-09-19T09:29:04;6.70;;;2.03;;
2972;SDS011;1496;51.404;7.232;2023-09-19T09:31:29;6.10;;;1.67;;
2972;SDS011;1496;51.404;7.232;2023-09-19T09:33:56;5.70;;;1.90;;
2972;SDS011;1496;51.404;7.232;2023-09-19T09:36:38;5.50;;;1.80;;
2972;SDS011;1496;51.404;7.232;2023-09-19T09:39:06;13.10;;;2.30;;
2972;SDS011;1496;51.404;7.232;2023-09-19T09:41:49;5.63;;;1.43;;
2972;SDS011;1496;51.404;7.232;2023-09-19T09:44:16;15.03;;;2.00;;
2972;SDS011;1496;51.404;7.232;2023-09-19T09:46:43;7.43;;;2.13;;
2972;SDS011;1496;51.404;7.232;2023-09-19T09:49:22;6.87;;;2.07;;
2972;SDS011;1496;51.404;7.232;2023-09-19T09:52:04;4.43;;;2.03;;
2972;SDS011;1496;51.404;7.232;2023-09-19T09:54:41;8.83;;;2.40;;
2972;SDS011;1496;51.404;7.232;2023-09-19T09:57:30;6.27;;;1.83;;
2972;SDS011;1496;51.404;7.232;2023-09-19T09:59:56;19.07;;;3.10;;
2972;SDS011;1496;51.404;7.232;2023-09-19T10:02:41;11.03;;;2.37;;
2972;SDS011;1496;51.404;7.232;2023-09-19T10:05:17;5.63;;;2.03;;
2972;SDS011;1496;51.404;7.232;2023-09-19T10:07:46;3.60;;;1.67;;
2972;SDS011;1496;51.404;7.232;2023-09-19T10:13:06;10.07;;;2.13;;
2972;SDS011;1496;51.404;7.232;2023-09-19T10:15:33;7.30;;;2.00;;
2972;SDS011;1496;51.404;7.232;2023-09-19T10:18:04;8.90;;;2.30;;
2972;SDS011;1496;51.404;7.232;2023-09-19T10:20:30;7.13;;;1.70;;
2972;SDS011;1496;51.404;7.232;2023-09-19T10:23:00;4.23;;;1.57;;
2972;SDS011;1496;51.404;7.232;2023-09-19T10:25:29;5.13;;;1.70;;
2972;SDS011;1496;51.404;7.232;2023-09-19T10:28:00;8.53;;;1.83;;
2972;SDS011;1496;51.404;7.232;2023-09-19T10:30:31;7.27;;;1.80;;
2972;SDS011;1496;51.404;7.232;2023-09-19T10:33:02;11.33;;;2.37;;
2972;SDS011;1496;51.404;7.232;2023-09-19T10:35:31;4.30;;;2.00;;
2972;SDS011;1496;51.404;7.232;2023-09-19T10:37:59;6.90;;;4.77;;
2972;SDS011;1496;51.404;7.232;2023-09-19T10:40:28;8.67;;;1.67;;
2972;SDS011;1496;51.404;7.232;2023-09-19T10:43:01;12.23;;;2.03;;
2972;SDS011;1496;51.404;7.232;2023-09-19T10:45:32;14.70;;;2.67;;
2972;SDS011;1496;51.404;7.232;2023-09-19T10:48:00;7.80;;;2.93;;
2972;SDS011;1496;51.404;7.232;2023-09-19T10:50:30;10.37;;;2.00;;
2972;SDS011;1496;51.404;7.232;2023-09-19T10:53:11;6.43;;;2.13;;
2972;SDS011;1496;51.404;7.232;2023-09-19T10:55:38;5.23;;;1.97;;
2972;SDS011;1496;51.404;7.232;2023-09-19T10:58:05;8.67;;;2.00;;
2972;SDS011;1496;51.404;7.232;2023-09-19T11:00:49;5.60;;;2.10;;
2972;SDS011;1496;51.404;7.232;2023-09-19T11:03:17;11.43;;;2.40;;
2972;SDS011;1496;51.404;7.232;2023-09-19T11:05:59;8.63;;;2.00;;
2972;SDS011;1496;51.404;7.232;2023-09-19T11:08:55;5.40;;;1.70;;
2972;SDS011;1496;51.404;7.232;2023-09-19T11:14:14;10.03;;;2.13;;
2972;SDS011;1496;51.404;7.232;2023-09-19T11:17:02;6.07;;;1.83;;
2972;SDS011;1496;51.404;7.232;2023-09-19T11:30:55;4.43;;;1.83;;
2972;SDS011;1496;51.404;7.232;2023-09-19T11:36:11;4.63;;;1.60;;
2972;SDS011;1496;51.404;7.232;2023-09-19T11:49:16;8.63;;;2.33;;
2972;SDS011;1496;51.404;7.232;2023-09-19T11:51:46;9.83;;;2.40;;
2972;SDS011;1496;51.404;7.232;2023-09-19T11:54:15;5.43;;;2.17;;
2972;SDS011;1496;51.404;7.232;2023-09-19T11:56:43;6.10;;;1.80;;
2972;SDS011;1496;51.404;7.232;2023-09-19T11:59:11;5.00;;;1.70;;
2972;SDS011;1496;51.404;7.232;2023-09-19T12:01:37;6.13;;;1.90;;
2972;SDS011;1496;51.404;7.232;2023-09-19T12:04:08;5.50;;;2.03;;
2972;SDS011;1496;51.404;7.232;2023-09-19T12:06:37;4.90;;;1.67;;
2972;SDS011;1496;51.404;7.232;2023-09-19T12:09:04;7.73;;;1.97;;
2972;SDS011;1496;51.404;7.232;2023-09-19T12:11:40;5.33;;;1.90;;
2972;SDS011;1496;51.404;7.232;2023-09-19T12:14:07;5.00;;;1.60;;
2972;SDS011;1496;51.404;7.232;2023-09-19T12:16:33;5.30;;;1.80;;
2972;SDS011;1496;51.404;7.232;2023-09-19T12:19:20;6.03;;;2.80;;
2972;SDS011;1496;51.404;7.232;2023-09-19T12:24:34;5.33;;;2.00;;
2972;SDS011;1496;51.404;7.232;2023-09-19T12:27:06;7.70;;;1.70;;
2972;SDS011;1496;51.404;7.232;2023-09-19T12:29:45;3.50;;;1.47;;
2972;SDS011;1496;51.404;7.232;2023-09-19T12:32:13;9.37;;;2.53;;
2972;SDS011;1496;51.404;7.232;2023-09-19T12:34:42;3.00;;;1.43;;
2972;SDS011;1496;51.404;7.232;2023-09-19T12:37:16;5.10;;;1.83;;
2972;SDS011;1496;51.404;7.232;2023-09-19T12:39:52;5.10;;;1.73;;
2972;SDS011;1496;51.404;7.232;2023-09-19T12:42:24;4.30;;;1.73;;
2972;SDS011;1496;51.404;7.232;2023-09-19T12:45:00;6.87;;;1.70;;
2972;SDS011;1496;51.404;7.232;2023-09-19T12:47:26;6.20;;;1.83;;
2972;SDS011;1496;51.404;7.232;2023-09-19T12:52:51;3.83;;;1.60;;
2972;SDS011;1496;51.404;7.232;2023-09-19T12:55:25;9.13;;;2.00;;
2972;SDS011;1496;51.404;7.232;2023-09-19T12:57:55;7.30;;;1.80;;
2972;SDS011;1496;51.404;7.232;2023-09-19T13:00:21;5.37;;;1.90;;
2972;SDS011;1496;51.404;7.232;2023-09-19T13:03:15;4.30;;;1.70;;
2972;SDS011;1496;51.404;7.232;2023-09-19T13:08:31;3.37;;;1.37;;
2972;SDS011;1496;51.404;7.232;2023-09-19T13:13:43;8.27;;;2.03;;
2972;SDS011;1496;51.404;7.232;2023-09-19T13:16:20;3.77;;;1.50;;
2972;SDS011;1496;51.404;7.232;2023-09-19T13:18:49;6.83;;;1.83;;
2972;SDS011;1496;51.404;7.232;2023-09-19T13:26:53;7.23;;;2.30;;
2972;SDS011;1496;51.404;7.232;2023-09-19T13:29:18;2.70;;;1.40;;
2972;SDS011;1496;51.404;7.232;2023-09-19T13:31:48;3.20;;;1.40;;
2972;SDS011;1496;51.404;7.232;2023-09-19T13:34:15;4.60;;;1.50;;
2972;SDS011;1496;51.404;7.232;2023-09-19T13:36:42;5.03;;;1.43;;
2972;SDS011;1496;51.404;7.232;2023-09-19T13:39:08;5.43;;;1.50;;
2972;SDS011;1496;51.404;7.232;2023-09-19T13:41:35;6.83;;;1.20;;
2972;SDS011;1496;51.404;7.232;2023-09-19T13:44:04;4.33;;;1.23;;
2972;SDS011;1496;51.404;7.232;2023-09-19T13:46:30;4.83;;;1.47;;
2972;SDS011;1496;51.404;7.232;2023-09-19T13:49:00;4.07;;;1.13;;
2972;SDS011;1496;51.404;7.232;2023-09-19T13:51:29;3.20;;;1.17;;
2972;SDS011;1496;51.404;7.232;2023-09-19T13:53:58;5.60;;;1.10;;
2972;SDS011;1496;51.404;7.232;2023-09-19T13:56:24;4.10;;;1.20;;
2972;SDS011;1496;51.404;7.232;2023-09-19T13:58:53;4.70;;;1.10;;
2972;SDS011;1496;51.404;7.232;2023-09-19T14:01:19;5.30;;;1.80;;
2972;SDS011;1496;51.404;7.232;2023-09-19T14:03:45;2.10;;;1.00;;
2972;SDS011;1496;51.404;7.232;2023-09-19T14:06:14;5.43;;;1.10;;
2972;SDS011;1496;51.404;7.232;2023-09-19T14:08:40;5.20;;;1.70;;
2972;SDS011;1496;51.404;7.232;2023-09-19T14:11:06;2.43;;;0.90;;
2972;SDS011;1496;51.404;7.232;2023-09-19T14:13:32;2.80;;;1.10;;
2972;SDS011;1496;51.404;7.232;2023-09-19T14:16:08;3.57;;;0.90;;
2972;SDS011;1496;51.404;7.232;2023-09-19T14:18:34;5.50;;;1.07;;
2972;SDS011;1496;51.404;7.232;2023-09-19T14:21:06;2.47;;;1.23;;
2972;SDS011;1496;51.404;7.232;2023-09-19T14:23:39;3.33;;;1.10;;
2972;SDS011;1496;51.404;7.232;2023-09-19T14:26:06;5.17;;;1.30;;
2972;SDS011;1496;51.404;7.232;2023-09-19T14:28:32;8.13;;;1.00;;
2972;SDS011;1496;51.404;7.232;2023-09-19T14:31:07;3.17;;;1.10;;
2972;SDS011;1496;51.404;7.232;2023-09-19T14:33:34;5.20;;;1.10;;
2972;SDS011;1496;51.404;7.232;2023-09-19T14:36:06;2.23;;;1.13;;
2972;SDS011;1496;51.404;7.232;2023-09-19T14:38:35;3.83;;;1.07;;
2972;SDS011;1496;51.404;7.232;2023-09-19T14:41:02;6.20;;;1.10;;
2972;SDS011;1496;51.404;7.232;2023-09-19T14:43:28;2.70;;;1.23;;
2972;SDS011;1496;51.404;7.232;2023-09-19T14:46:16;3.23;;;1.03;;
2972;SDS011;1496;51.404;7.232;2023-09-19T14:48:41;4.10;;;1.00;;
2972;SDS011;1496;51.404;7.232;2023-09-19T14:51:08;3.07;;;1.07;;
2972;SDS011;1496;51.404;7.232;2023-09-19T14:53:36;4.60;;;1.10;;
2972;SDS011;1496;51.404;7.232;2023-09-19T14:56:03;2.60;;;0.80;;
2972;SDS011;1496;51.404;7.232;2023-09-19T14:58:30;3.43;;;0.97;;
2972;SDS011;1496;51.404;7.232;2023-09-19T15:01:06;2.40;;;0.90;;
2972;SDS011;1496;51.404;7.232;2023-09-19T15:03:36;3.27;;;1.20;;
2972;SDS011;1496;51.404;7.232;2023-09-19T15:06:02;3.53;;;0.73;;
2972;SDS011;1496;51.404;7.232;2023-09-19T15:08:41;6.90;;;1.27;;
2972;SDS011;1496;51.404;7.232;2023-09-19T15:11:12;3.83;;;0.93;;
2972;SDS011;1496;51.404;7.232;2023-09-19T15:13:42;2.50;;;1.07;;
2972;SDS011;1496;51.404;7.232;2023-09-19T15:16:09;2.13;;;1.07;;
2972;SDS011;1496;51.404;7.232;2023-09-19T15:18:39;1.70;;;0.80;;
2972;SDS011;1496;51.404;7.232;2023-09-19T15:21:07;3.93;;;1.00;;
2972;SDS011;1496;51.404;7.232;2023-09-19T15:23:34;4.57;;;1.50;;
2972;SDS011;1496;51.404;7.232;2023-09-19T15:26:02;3.10;;;1.00;;
2972;SDS011;1496;51.404;7.232;2023-09-19T15:28:28;2.13;;;0.90;;
2972;SDS011;1496;51.404;7.232;2023-09-19T15:31:07;7.37;;;1.17;;
2972;SDS011;1496;51.404;7.232;2023-09-19T15:33:35;4.00;;;1.30;;
2972;SDS011;1496;51.404;7.232;2023-09-19T15:36:05;2.70;;;0.60;;
2972;SDS011;1496;51.404;7.232;2023-09-19T15:41:31;2.57;;;0.80;;
2972;SDS011;1496;51.404;7.232;2023-09-19T15:43:58;3.20;;;1.17;;
2972;SDS011;1496;51.404;7.232;2023-09-19T15:46:26;5.63;;;1.20;;
2972;SDS011;1496;51.404;7.232;2023-09-19T15:48:53;2.30;;;0.97;;
2972;SDS011;1496;51.404;7.232;2023-09-19T15:51:19;3.10;;;1.03;;
2972;SDS011;1496;51.404;7.232;2023-09-19T15:53:49;4.50;;;1.73;;
2972;SDS011;1496;51.404;7.232;2023-09-19T15:56:16;4.53;;;1.10;;
2972;SDS011;1496;51.404;7.232;2023-09-19T15:58:45;3.90;;;1.07;;
2972;SDS011;1496;51.404;7.232;2023-09-19T16:01:12;2.80;;;0.80;;
2972;SDS011;1496;51.404;7.232;2023-09-19T16:03:38;4.90;;;0.90;;
2972;SDS011;1496;51.404;7.232;2023-09-19T16:06:17;3.53;;;1.20;;
2972;SDS011;1496;51.404;7.232;2023-09-19T16:08:45;4.07;;;1.10;;
2972;SDS011;1496;51.404;7.232;2023-09-19T16:11:14;1.53;;;1.10;;
2972;SDS011;1496;51.404;7.232;2023-09-19T16:13:41;2.40;;;1.00;;
2972;SDS011;1496;51.404;7.232;2023-09-19T16:16:08;2.00;;;0.80;;
2972;SDS011;1496;51.404;7.232;2023-09-19T16:18:37;1.40;;;0.80;;
2972;SDS011;1496;51.404;7.232;2023-09-19T16:21:04;1.53;;;0.83;;
2972;SDS011;1496;51.404;7.232;2023-09-19T16:23:33;2.63;;;0.80;;
2972;SDS011;1496;51.404;7.232;2023-09-19T16:26:07;4.10;;;0.90;;
2972;SDS011;1496;51.404;7.232;2023-09-19T16:28:34;4.90;;;0.80;;
2972;SDS011;1496;51.404;7.232;2023-09-19T16:31:02;8.07;;;1.00;;